Time;durP1;ratioP1;P1;durP2;ratioP2;P2;SDS_P1;SDS_P2;PMS_P1;PMS_P2;Temp;Humidity;BMP_temperature;BMP_pressure;BME280_temperature;BME280_humidity;BME280_pressure;Samples;Min_cycle;Max_cycle;Signal;HPM_P1;HPM_P2
2022/01/14 00:00:37;;;;;;;26.13;15.35;;;6.20;95.60;;;;;;5143802;27;20082;-80
2022/01/14 00:03:02;;;;;;;31.50;15.63;;;6.20;95.60;;;;;;5142986;27;20455;-80
2022/01/14 00:05:28;;;;;;;29.63;15.60;;;6.20;95.70;;;;;;5143688;27;20037;-81
2022/01/14 00:07:54;;;;;;;25.40;14.75;;;6.30;95.70;;;;;;5160626;27;20045;-80
2022/01/14 00:10:19;;;;;;;25.80;14.50;;;6.30;95.60;;;;;;5143234;27;20477;-80
2022/01/14 00:12:53;;;;;;;31.50;16.13;;;6.30;95.60;;;;;;5161212;27;20049;-80
2022/01/14 00:15:26;;;;;;;25.23;14.10;;;6.30;95.40;;;;;;5161004;27;20501;-80
2022/01/14 00:17:53;;;;;;;27.27;16.67;;;6.40;95.40;;;;;;5160972;27;20101;-81
2022/01/14 00:20:20;;;;;;;26.48;14.30;;;6.30;95.40;;;;;;5143418;27;20038;-81
2022/01/14 00:22:46;;;;;;;34.10;16.88;;;6.30;95.60;;;;;;5161286;27;20385;-80
2022/01/14 00:31:42;;;;;;;35.88;17.10;;;6.40;95.20;;;;;;5160882;27;20125;-81
2022/01/14 00:33:31;;;;;;;33.08;17.63;;;6.30;95.50;;;;;;5146187;27;20125;-80
2022/01/14 00:35:57;;;;;;;31.83;16.23;;;6.30;95.50;;;;;;5142802;27;20577;-81
2022/01/14 00:38:23;;;;;;;34.72;16.92;;;6.30;95.60;;;;;;5143256;27;20049;-81
2022/01/14 00:40:49;;;;;;;29.45;16.83;;;6.30;95.60;;;;;;5143225;27;20430;-81
2022/01/14 00:43:15;;;;;;;29.85;15.98;;;6.30;95.70;;;;;;5109106;27;20069;-81
2022/01/14 00:45:42;;;;;;;32.58;17.23;;;6.30;95.60;;;;;;5142925;27;20038;-81
2022/01/14 00:48:07;;;;;;;28.67;14.65;;;6.30;95.40;;;;;;5160444;27;20052;-81
2022/01/14 00:50:34;;;;;;;28.92;17.33;;;6.40;95.10;;;;;;5143432;27;20474;-81
2022/01/14 00:53:00;;;;;;;37.33;18.58;;;6.40;95.10;;;;;;5143043;27;20121;-81
2022/01/14 00:55:29;;;;;;;32.30;17.08;;;6.30;95.10;;;;;;5160069;27;20049;-81
2022/01/14 01:00:30;;;;;;;34.58;18.92;;;6.30;95.40;;;;;;5143187;27;20034;-81
2022/01/14 01:02:56;;;;;;;34.88;17.85;;;6.30;95.50;;;;;;5142983;27;20045;-81
2022/01/14 01:05:23;;;;;;;29.35;16.80;;;6.30;95.50;;;;;;5159986;27;20034;-81
2022/01/14 01:07:59;;;;;;;37.58;18.92;;;6.40;95.50;;;;;;5142629;27;20626;-80
2022/01/14 01:10:25;;;;;;;39.30;18.88;;;6.40;95.30;;;;;;5159973;27;20098;-81
2022/01/14 01:12:59;;;;;;;36.92;16.85;;;6.40;95.40;;;;;;5142665;27;20042;-81
2022/01/14 01:15:25;;;;;;;43.70;19.10;;;6.30;95.60;;;;;;5159967;27;20042;-81
2022/01/14 01:17:51;;;;;;;29.20;17.42;;;6.30;95.60;;;;;;5125036;27;20043;-81
2022/01/14 01:20:18;;;;;;;34.70;18.00;;;6.30;95.80;;;;;;5142485;27;20158;-81
2022/01/14 01:22:49;;;;;;;38.00;17.45;;;6.40;95.70;;;;;;5142474;27;20066;-80
2022/01/14 01:25:22;;;;;;;35.22;18.48;;;6.40;95.90;;;;;;5142241;27;20091;-81
2022/01/14 01:27:49;;;;;;;35.83;18.30;;;6.40;95.80;;;;;;5159663;27;20045;-81
2022/01/14 01:30:47;;;;;;;40.17;18.55;;;6.30;95.90;;;;;;5159580;27;20558;-81
2022/01/14 01:33:04;;;;;;;38.65;17.73;;;6.30;96.00;;;;;;5159316;27;20133;-80
2022/01/14 01:35:31;;;;;;;38.08;18.90;;;6.30;96.00;;;;;;5159267;27;20046;-81
2022/01/14 01:37:57;;;;;;;35.17;18.30;;;6.30;96.20;;;;;;5125036;27;20060;-81
2022/01/14 01:40:25;;;;;;;36.85;17.13;;;6.30;96.20;;;;;;5142168;27;20087;-81
2022/01/14 01:42:54;;;;;;;33.33;16.70;;;6.30;96.30;;;;;;5141496;27;20557;-81
2022/01/14 01:45:25;;;;;;;32.88;16.60;;;6.30;96.20;;;;;;5141593;27;20030;-80
2022/01/14 01:47:54;;;;;;;37.05;16.77;;;6.30;96.40;;;;;;5141960;27;20050;-81
2022/01/14 01:50:23;;;;;;;36.13;15.75;;;6.30;96.30;;;;;;5159542;27;20166;-81
2022/01/14 01:52:49;;;;;;;33.90;17.23;;;6.30;96.40;;;;;;5159154;27;20041;-81
2022/01/14 01:55:16;;;;;;;33.58;16.40;;;6.30;96.40;;;;;;5159120;27;20098;-81
2022/01/14 01:57:43;;;;;;;35.45;15.43;;;6.30;96.30;;;;;;5158233;27;20389;-81
2022/01/14 02:00:13;;;;;;;31.80;15.85;;;6.20;96.30;;;;;;5139095;27;20038;-81
2022/01/14 02:02:39;;;;;;;42.85;18.23;;;6.30;96.40;;;;;;5139273;27;20046;-81
2022/01/14 02:05:06;;;;;;;43.72;17.45;;;6.30;96.40;;;;;;5139313;27;20030;-81
2022/01/14 02:07:33;;;;;;;37.22;17.83;;;6.20;96.50;;;;;;5156808;27;20049;-81
2022/01/14 02:09:59;;;;;;;41.33;17.35;;;6.20;96.60;;;;;;5139421;27;20049;-81
2022/01/14 02:12:33;;;;;;;35.40;16.52;;;6.20;96.50;;;;;;5139572;27;20088;-81
2022/01/14 02:15:12;;;;;;;34.97;17.08;;;6.20;96.50;;;;;;5141304;27;20145;-81
2022/01/14 02:23:06;;;;;;;37.45;15.90;;;6.10;96.70;;;;;;5158120;27;20045;-81
2022/01/14 02:25:32;;;;;;;37.92;19.05;;;6.20;96.80;;;;;;5140738;27;20041;-81
2022/01/14 02:28:10;;;;;;;38.13;18.55;;;6.20;96.80;;;;;;5106671;27;20043;-81
2022/01/14 02:30:39;;;;;;;42.85;18.58;;;6.20;96.80;;;;;;5140952;27;20038;-81
2022/01/14 02:33:05;;;;;;;31.70;16.02;;;6.20;96.90;;;;;;5158195;27;20042;-81
2022/01/14 02:35:31;;;;;;;38.45;19.95;;;6.20;96.80;;;;;;5140332;27;20065;-81
2022/01/14 02:37:58;;;;;;;42.83;18.75;;;6.20;96.80;;;;;;5140513;27;20038;-81
2022/01/14 02:40:24;;;;;;;41.97;19.83;;;6.20;96.90;;;;;;5140413;27;20121;-81
2022/01/14 02:42:50;;;;;;;36.95;19.42;;;6.20;96.80;;;;;;5158242;27;20038;-81
2022/01/14 02:45:18;;;;;;;35.28;18.63;;;6.20;96.80;;;;;;5140906;27;20039;-81
2022/01/14 02:47:45;;;;;;;35.90;19.15;;;6.10;96.80;;;;;;5140772;27;20074;-81
2022/01/14 02:50:19;;;;;;;36.75;19.00;;;6.20;96.90;;;;;;5140880;27;20053;-81
2022/01/14 02:55:18;;;;;;;42.35;19.65;;;6.20;96.80;;;;;;5158038;27;20038;-81
2022/01/14 02:57:47;;;;;;;32.92;18.50;;;6.20;96.80;;;;;;5141042;27;20067;-81
2022/01/14 03:00:15;;;;;;;31.50;17.33;;;6.30;96.90;;;;;;5157907;27;20069;-81
2022/01/14 03:02:43;;;;;;;33.97;18.48;;;6.30;96.80;;;;;;5158201;27;20038;-81
2022/01/14 03:05:09;;;;;;;37.53;19.40;;;6.30;96.60;;;;;;5140375;27;20046;-81
2022/01/14 03:07:36;;;;;;;37.22;21.38;;;6.30;96.60;;;;;;5140399;27;20042;-81
2022/01/14 03:10:03;;;;;;;37.60;18.48;;;6.30;96.50;;;;;;5140382;27;20090;-81
2022/01/14 03:12:29;;;;;;;34.47;17.88;;;6.20;96.50;;;;;;5140320;27;20046;-81
2022/01/14 03:14:54;;;;;;;40.58;19.20;;;6.30;96.50;;;;;;5157771;27;20045;-81
2022/01/14 03:17:20;;;;;;;32.15;17.85;;;6.20;96.50;;;;;;5157484;27;20041;-81
2022/01/14 03:19:47;;;;;;;38.17;19.45;;;6.30;96.60;;;;;;5140345;27;20031;-81
2022/01/14 03:22:25;;;;;;;41.20;18.33;;;6.20;96.60;;;;;;5123666;27;20069;-81
2022/01/14 03:27:16;;;;;;;37.05;19.25;;;6.20;96.60;;;;;;5157634;27;20505;-79
2022/01/14 03:29:42;;;;;;;40.42;19.27;;;6.10;96.70;;;;;;5139814;27;20039;-79
2022/01/14 03:32:08;;;;;;;33.47;18.17;;;6.10;96.80;;;;;;5139833;27;20045;-79
2022/01/14 03:34:34;;;;;;;37.38;19.48;;;6.10;96.70;;;;;;5157470;27;20050;-79
2022/01/14 03:37:00;;;;;;;35.72;18.73;;;6.10;96.70;;;;;;5140231;27;20405;-79
2022/01/14 03:39:26;;;;;;;33.85;19.02;;;6.10;96.70;;;;;;5157445;27;20058;-79
2022/01/14 03:41:52;;;;;;;34.47;19.52;;;6.10;96.90;;;;;;5139934;27;20034;-79
2022/01/14 03:44:19;;;;;;;35.33;18.15;;;6.20;96.80;;;;;;5140319;27;20175;-79
2022/01/14 03:46:45;;;;;;;40.13;20.33;;;6.20;96.50;;;;;;5157318;27;20041;-80
2022/01/14 03:49:11;;;;;;;38.83;21.88;;;6.10;96.40;;;;;;5140138;27;20478;-80
2022/01/14 03:51:37;;;;;;;38.10;21.63;;;6.10;96.40;;;;;;5140088;27;20115;-80
2022/01/14 03:54:03;;;;;;;39.15;20.25;;;6.10;96.40;;;;;;5122911;27;20070;-80
2022/01/14 03:56:29;;;;;;;33.80;20.02;;;6.10;96.50;;;;;;5122756;27;20041;-80
2022/01/14 03:58:55;;;;;;;33.60;19.95;;;6.10;96.50;;;;;;5156928;27;20042;-80
2022/01/14 04:01:21;;;;;;;40.08;20.80;;;6.10;96.40;;;;;;5139960;27;20042;-80
2022/01/14 04:03:48;;;;;;;41.65;21.40;;;6.10;96.40;;;;;;5123061;27;20397;-80
2022/01/14 04:06:15;;;;;;;37.17;20.08;;;6.10;96.30;;;;;;5139803;27;20074;-80
2022/01/14 04:08:41;;;;;;;46.45;21.88;;;6.10;96.40;;;;;;5157177;27;20041;-80
2022/01/14 04:11:08;;;;;;;47.17;25.50;;;6.10;96.30;;;;;;5139810;27;20050;-80
2022/01/14 04:13:39;;;;;;;35.65;22.02;;;6.10;96.20;;;;;;5139818;27;20130;-80
2022/01/14 04:16:06;;;;;;;32.55;19.98;;;6.10;96.20;;;;;;5123521;27;20363;-80
2022/01/14 04:18:32;;;;;;;37.90;20.90;;;6.10;96.30;;;;;;5139453;27;20541;-80
2022/01/14 04:20:57;;;;;;;35.92;18.73;;;6.10;96.30;;;;;;5139503;27;20117;-80
2022/01/14 04:23:23;;;;;;;36.83;20.23;;;6.10;96.20;;;;;;5139583;27;20066;-80
2022/01/14 04:25:53;;;;;;;37.20;21.10;;;6.10;96.10;;;;;;5139713;27;20034;-80
2022/01/14 04:28:21;;;;;;;35.85;19.35;;;6.10;96.20;;;;;;5122956;27;20628;-80
2022/01/14 04:30:48;;;;;;;33.92;20.60;;;6.10;96.10;;;;;;5122616;27;20049;-80
2022/01/14 04:33:14;;;;;;;40.80;20.77;;;6.10;95.90;;;;;;5122630;27;20045;-80
2022/01/14 04:35:40;;;;;;;37.15;20.35;;;6.10;95.90;;;;;;5156540;27;20195;-80
2022/01/14 04:38:07;;;;;;;36.03;19.98;;;6.10;95.90;;;;;;5138973;27;20501;-80
2022/01/14 04:40:33;;;;;;;34.28;19.45;;;6.10;96.00;;;;;;5139581;27;20038;-80
2022/01/14 04:43:00;;;;;;;37.88;18.45;;;6.10;95.80;;;;;;5142054;27;20508;-80
2022/01/14 04:45:39;;;;;;;31.63;19.40;;;6.10;95.80;;;;;;5143237;27;20038;-80
2022/01/14 04:48:07;;;;;;;41.25;18.73;;;6.10;95.60;;;;;;5143057;27;20046;-79
2022/01/14 04:50:33;;;;;;;35.97;19.98;;;6.10;95.50;;;;;;5160664;27;20115;-80
2022/01/14 04:53:00;;;;;;;30.27;18.95;;;6.10;95.50;;;;;;5143208;27;20055;-80
2022/01/14 04:55:26;;;;;;;32.97;19.50;;;6.10;95.50;;;;;;5143373;27;20057;-80
2022/01/14 04:57:53;;;;;;;34.72;19.02;;;6.10;95.60;;;;;;5125726;27;20546;-80
2022/01/14 05:00:22;;;;;;;34.00;20.50;;;6.10;95.50;;;;;;5160241;27;20038;-80
2022/01/14 05:02:48;;;;;;;35.50;19.70;;;6.10;95.50;;;;;;5160178;27;20087;-80
2022/01/14 05:05:17;;;;;;;35.40;19.88;;;6.00;95.50;;;;;;5126159;27;20034;-80
2022/01/14 05:07:45;;;;;;;36.65;19.20;;;6.10;95.50;;;;;;5143094;27;20394;-80
2022/01/14 05:12:56;;;;;;;29.67;17.90;;;6.00;95.30;;;;;;5145419;27;20042;-80
2022/01/14 05:15:22;;;;;;;37.40;20.92;;;6.00;95.50;;;;;;5142947;27;20088;-80
2022/01/14 05:17:49;;;;;;;35.53;20.92;;;6.10;95.10;;;;;;5159769;27;20480;-80
2022/01/14 05:20:15;;;;;;;33.50;18.65;;;6.00;95.20;;;;;;5160180;27;20393;-80
2022/01/14 05:22:41;;;;;;;32.38;18.08;;;6.10;95.40;;;;;;5159795;27;20030;-80
2022/01/14 05:25:08;;;;;;;31.25;20.55;;;6.10;95.30;;;;;;5142603;27;20041;-80
2022/01/14 05:27:35;;;;;;;33.55;19.67;;;6.10;95.10;;;;;;5159664;27;20042;-80
2022/01/14 05:30:02;;;;;;;33.80;17.83;;;6.10;95.10;;;;;;5142518;27;20049;-80
2022/01/14 05:32:28;;;;;;;41.25;20.60;;;6.10;95.00;;;;;;5142602;27;20090;-80
2022/01/14 05:34:54;;;;;;;30.50;19.10;;;6.10;95.00;;;;;;5138721;27;20490;-79
2022/01/14 05:37:20;;;;;;;33.03;17.67;;;6.00;95.10;;;;;;5155903;27;20491;-79
2022/01/14 05:39:46;;;;;;;32.67;18.95;;;6.00;95.20;;;;;;5139042;27;20042;-79
2022/01/14 05:42:11;;;;;;;33.38;17.98;;;6.10;95.20;;;;;;5138577;27;20031;-79
2022/01/14 05:44:38;;;;;;;36.47;18.90;;;6.00;95.20;;;;;;5138491;27;20030;-79
2022/01/14 05:47:04;;;;;;;34.88;19.02;;;6.00;95.20;;;;;;5155985;27;20405;-79
2022/01/14 05:49:30;;;;;;;27.58;16.98;;;6.00;95.30;;;;;;5138941;27;20043;-81
2022/01/14 05:51:56;;;;;;;28.42;17.05;;;6.00;95.30;;;;;;5155517;27;20576;-79
2022/01/14 05:54:22;;;;;;;31.05;18.10;;;6.00;95.30;;;;;;5154596;27;20047;-79
2022/01/14 05:56:48;;;;;;;35.03;18.40;;;6.00;95.30;;;;;;5155612;27;20125;-79
2022/01/14 05:59:15;;;;;;;34.38;17.67;;;6.00;95.40;;;;;;5155565;27;20077;-79
2022/01/14 06:01:41;;;;;;;29.58;16.80;;;6.00;95.30;;;;;;5138375;27;20038;-80
2022/01/14 06:04:07;;;;;;;25.08;16.23;;;6.00;95.40;;;;;;5138259;27;20121;-79
2022/01/14 06:06:34;;;;;;;26.10;16.83;;;6.00;95.40;;;;;;5155477;27;20126;-79
2022/01/14 06:09:00;;;;;;;28.48;17.00;;;6.00;95.30;;;;;;5155287;27;20046;-79
2022/01/14 06:11:26;;;;;;;31.27;17.17;;;6.00;95.30;;;;;;5155314;27;20043;-79
2022/01/14 06:13:53;;;;;;;33.63;16.92;;;6.00;95.30;;;;;;5138167;27;20042;-79
2022/01/14 06:16:19;;;;;;;31.98;16.25;;;6.00;95.40;;;;;;5138142;27;20423;-79
2022/01/14 06:18:46;;;;;;;28.85;16.05;;;6.00;95.40;;;;;;5155186;27;20039;-79
2022/01/14 06:21:12;;;;;;;31.05;17.58;;;6.10;95.40;;;;;;5155505;27;20034;-80
2022/01/14 06:23:38;;;;;;;30.58;16.25;;;6.10;95.40;;;;;;5137777;27;20125;-80
2022/01/14 06:26:04;;;;;;;34.70;16.00;;;6.10;95.30;;;;;;5137734;27;20031;-80
2022/01/14 06:28:30;;;;;;;29.70;15.45;;;6.10;95.40;;;;;;5154975;27;20035;-80
2022/01/14 06:30:56;;;;;;;29.92;17.63;;;6.10;95.30;;;;;;5137541;27;20042;-79
2022/01/14 06:33:21;;;;;;;34.05;16.02;;;6.10;95.40;;;;;;5154896;27;20038;-80
2022/01/14 06:35:49;;;;;;;28.48;15.75;;;6.10;95.40;;;;;;5154800;27;20059;-79
2022/01/14 06:38:16;;;;;;;32.38;15.15;;;6.10;95.40;;;;;;5137430;27;20108;-79
2022/01/14 06:40:42;;;;;;;30.40;15.38;;;6.10;95.50;;;;;;5137866;27;20363;-80
2022/01/14 06:43:07;;;;;;;31.90;15.50;;;6.10;95.40;;;;;;5154676;27;20091;-80
2022/01/14 06:45:33;;;;;;;32.63;16.95;;;6.00;95.50;;;;;;5137541;27;20042;-80
2022/01/14 06:47:59;;;;;;;28.65;14.10;;;6.10;95.50;;;;;;5137554;27;20043;-80
2022/01/14 06:50:26;;;;;;;30.67;14.90;;;6.10;95.70;;;;;;5154774;27;20517;-80
2022/01/14 06:52:52;;;;;;;36.95;16.13;;;6.10;95.50;;;;;;5154647;27;20077;-79
2022/01/14 06:55:17;;;;;;;24.40;13.32;;;6.10;95.60;;;;;;5137464;27;20073;-80
2022/01/14 06:57:43;;;;;;;28.10;13.55;;;6.10;95.60;;;;;;5137093;27;20045;-79
2022/01/14 07:00:12;;;;;;;23.98;13.00;;;6.10;95.50;;;;;;5154442;27;20126;-79
2022/01/14 07:02:38;;;;;;;22.10;12.45;;;6.10;95.50;;;;;;5137546;27;20035;-79
2022/01/14 07:05:05;;;;;;;22.10;11.38;;;6.10;95.50;;;;;;5136948;27;20043;-79
2022/01/14 07:07:31;;;;;;;23.58;11.00;;;6.10;95.30;;;;;;5154023;27;20039;-79
2022/01/14 07:09:57;;;;;;;21.77;9.95;;;6.20;95.40;;;;;;5154215;27;20045;-79
2022/01/14 07:12:27;;;;;;;20.40;9.98;;;6.20;95.30;;;;;;5120696;27;20463;-79
2022/01/14 07:14:54;;;;;;;22.45;9.07;;;6.20;95.20;;;;;;5136995;27;20038;-77
2022/01/14 07:17:20;;;;;;;19.13;9.13;;;6.20;95.10;;;;;;5154060;27;20050;-79
2022/01/14 07:19:48;;;;;;;29.52;9.73;;;6.30;95.10;;;;;;5154147;27;20070;-78
2022/01/14 07:22:14;;;;;;;21.25;8.85;;;6.30;95.00;;;;;;5154387;27;20070;-79
2022/01/14 07:24:40;;;;;;;25.65;8.32;;;6.30;94.90;;;;;;5154060;27;20077;-79
2022/01/14 07:27:06;;;;;;;20.88;8.75;;;6.40;94.90;;;;;;5154452;27;20038;-78
2022/01/14 07:29:32;;;;;;;20.67;8.38;;;6.30;94.90;;;;;;5119676;27;20074;-78
2022/01/14 07:31:58;;;;;;;16.55;8.95;;;6.30;94.80;;;;;;5136350;27;20057;-79
2022/01/14 07:34:25;;;;;;;21.73;9.15;;;6.20;94.90;;;;;;5152730;27;20069;-78
2022/01/14 07:36:51;;;;;;;18.63;8.13;;;6.30;95.10;;;;;;5136687;27;20099;-78
2022/01/14 07:39:19;;;;;;;18.73;8.10;;;6.30;95.00;;;;;;5154175;27;20039;-78
2022/01/14 07:41:47;;;;;;;17.77;8.50;;;6.30;95.10;;;;;;5119753;27;20037;-79
2022/01/14 07:44:14;;;;;;;24.08;9.18;;;6.30;95.10;;;;;;5136484;27;20035;-78
2022/01/14 07:46:40;;;;;;;16.70;8.55;;;6.30;95.10;;;;;;5136479;27;20049;-78
2022/01/14 07:49:06;;;;;;;17.00;9.25;;;6.30;95.00;;;;;;5153865;27;20043;-79
2022/01/14 07:51:32;;;;;;;19.95;8.40;;;6.30;95.00;;;;;;5136594;27;20078;-78
2022/01/14 07:53:58;;;;;;;21.83;9.02;;;6.30;95.00;;;;;;5153858;27;20082;-78
2022/01/14 07:56:24;;;;;;;15.10;8.15;;;6.30;95.00;;;;;;5153357;27;20050;-79
2022/01/14 07:58:50;;;;;;;13.65;7.80;;;6.30;95.10;;;;;;5153215;27;20103;-79
2022/01/14 08:01:16;;;;;;;20.67;8.35;;;6.30;95.10;;;;;;5152790;27;20402;-79
2022/01/14 08:03:41;;;;;;;18.63;8.45;;;6.30;95.10;;;;;;5153533;27;20041;-79
2022/01/14 08:06:10;;;;;;;17.15;8.02;;;6.30;95.10;;;;;;5119557;27;20042;-79
2022/01/14 08:08:38;;;;;;;14.57;7.78;;;6.40;95.00;;;;;;5120029;27;20486;-79
2022/01/14 08:11:07;;;;;;;19.05;8.13;;;6.40;95.00;;;;;;5153649;27;20050;-79
2022/01/14 08:13:34;;;;;;;16.20;7.43;;;6.40;94.90;;;;;;5153862;27;20043;-79
2022/01/14 08:15:59;;;;;;;15.48;8.63;;;6.40;95.10;;;;;;5136266;27;20507;-79
2022/01/14 08:18:25;;;;;;;21.05;8.68;;;6.40;94.80;;;;;;5123411;27;20069;-79
2022/01/14 08:20:51;;;;;;;18.80;8.40;;;6.40;94.90;;;;;;5157569;27;20478;-79
2022/01/14 08:23:19;;;;;;;18.73;7.40;;;6.40;95.00;;;;;;5140301;27;20038;-79
2022/01/14 08:25:45;;;;;;;14.10;7.20;;;6.50;95.00;;;;;;5140846;27;20039;-79
2022/01/14 08:28:10;;;;;;;17.02;7.35;;;6.50;94.90;;;;;;5140518;27;20046;-79
2022/01/14 08:30:36;;;;;;;14.73;7.47;;;6.50;94.90;;;;;;5157355;27;20121;-79
2022/01/14 08:33:02;;;;;;;15.15;7.30;;;6.50;94.90;;;;;;5157253;27;20043;-79
2022/01/14 08:35:29;;;;;;;19.80;7.13;;;6.50;94.80;;;;;;5121736;27;20086;-79
2022/01/14 08:37:55;;;;;;;14.80;6.30;;;6.50;94.90;;;;;;5156125;27;20039;-79
2022/01/14 08:40:21;;;;;;;17.30;6.93;;;6.50;94.90;;;;;;5138861;27;20039;-79
2022/01/14 08:42:52;;;;;;;16.92;6.50;;;6.50;94.90;;;;;;5155865;27;20677;-79
2022/01/14 08:45:21;;;;;;;14.82;6.55;;;6.50;95.00;;;;;;5156252;27;20039;-79
2022/01/14 08:47:51;;;;;;;12.82;5.85;;;6.50;94.90;;;;;;5138417;27;20042;-79
2022/01/14 08:50:21;;;;;;;11.65;6.05;;;6.50;94.90;;;;;;5139232;27;20042;-79
2022/01/14 08:52:47;;;;;;;15.02;6.63;;;6.50;94.90;;;;;;5122041;27;20038;-79
2022/01/14 08:55:15;;;;;;;12.40;5.80;;;6.50;95.00;;;;;;5121301;27;20070;-79
2022/01/14 08:57:42;;;;;;;13.68;5.80;;;6.50;95.00;;;;;;5155543;27;20038;-81
2022/01/14 09:00:08;;;;;;;13.43;5.85;;;6.50;95.00;;;;;;5138519;27;20083;-80
2022/01/14 09:02:34;;;;;;;11.88;5.15;;;6.60;95.10;;;;;;5121607;27;20035;-81
2022/01/14 09:05:00;;;;;;;11.13;4.97;;;6.60;95.10;;;;;;5155283;27;20474;-80
2022/01/14 09:07:26;;;;;;;12.60;5.72;;;6.60;95.20;;;;;;5155163;27;20046;-79
2022/01/14 09:09:54;;;;;;;17.90;7.07;;;6.60;95.10;;;;;;5120678;27;20084;-79
2022/01/14 09:12:20;;;;;;;11.90;5.05;;;6.60;95.10;;;;;;5120582;27;20035;-80
2022/01/14 09:14:46;;;;;;;12.95;6.18;;;6.70;95.10;;;;;;5155211;27;20041;-79
2022/01/14 09:17:12;;;;;;;14.15;4.43;;;6.70;95.00;;;;;;5154732;27;20113;-80
2022/01/14 09:19:41;;;;;;;9.95;5.03;;;6.70;95.00;;;;;;5154814;27;20035;-80
2022/01/14 09:22:08;;;;;;;17.08;6.05;;;6.70;94.90;;;;;;5154779;27;20049;-80
2022/01/14 09:24:36;;;;;;;16.80;7.38;;;6.80;95.00;;;;;;5137623;27;20487;-79
2022/01/14 09:27:03;;;;;;;15.65;6.15;;;6.70;95.00;;;;;;5137585;27;20058;-79
2022/01/14 09:29:29;;;;;;;19.83;7.10;;;6.80;95.10;;;;;;5153583;27;20445;-79
2022/01/14 09:31:55;;;;;;;17.30;4.63;;;6.80;95.00;;;;;;5137436;27;20545;-79
2022/01/14 09:34:20;;;;;;;13.68;4.32;;;6.80;95.00;;;;;;5114445;27;1134252;-80
2022/01/14 09:36:46;;;;;;;17.27;4.00;;;6.90;95.00;;;;;;5155709;27;20159;-79
2022/01/14 09:39:12;;;;;;;21.23;5.38;;;6.90;95.00;;;;;;5155631;27;20070;-79
2022/01/14 09:41:38;;;;;;;10.65;3.72;;;6.90;94.90;;;;;;5121123;27;20501;-79
2022/01/14 09:44:05;;;;;;;13.70;5.13;;;7.00;94.90;;;;;;5155749;27;20038;-79
2022/01/14 09:46:31;;;;;;;19.40;4.50;;;7.00;94.80;;;;;;5138303;27;20074;-80
2022/01/14 09:48:57;;;;;;;9.38;4.18;;;7.00;94.70;;;;;;5155469;27;20130;-79
2022/01/14 09:51:23;;;;;;;10.95;4.20;;;7.00;94.70;;;;;;5155427;27;20042;-79
2022/01/14 09:53:50;;;;;;;13.07;4.18;;;7.00;94.60;;;;;;5155440;27;20046;-80
2022/01/14 09:56:21;;;;;;;13.82;3.65;;;7.00;94.50;;;;;;5121048;27;20486;-80
2022/01/14 09:58:48;;;;;;;11.40;4.55;;;7.00;94.60;;;;;;5155259;27;20045;-79
2022/01/14 10:01:16;;;;;;;18.38;5.07;;;7.10;94.30;;;;;;5121032;27;20108;-80
2022/01/14 10:03:51;;;;;;;14.32;3.70;;;7.10;94.30;;;;;;5139471;27;20386;-80
2022/01/14 10:06:39;;;;;;;10.25;3.28;;;7.10;94.00;;;;;;5155448;27;20381;-79
2022/01/14 10:09:20;;;;;;;22.08;5.57;;;7.10;93.90;;;;;;5139813;27;20440;-80
2022/01/14 10:12:08;;;;;;;13.38;3.55;;;7.10;93.70;;;;;;5155051;27;20108;-79
2022/01/14 10:14:37;;;;;;;11.48;3.47;;;7.10;93.70;;;;;;5155323;27;20103;-79
2022/01/14 10:17:08;;;;;;;15.90;3.95;;;7.10;93.80;;;;;;5155336;27;20093;-79
2022/01/14 10:19:36;;;;;;;12.85;5.82;;;7.20;93.70;;;;;;5155197;27;20031;-79
2022/01/14 10:22:16;;;;;;;12.27;4.07;;;7.20;93.80;;;;;;5137661;27;20382;-79
2022/01/14 10:25:12;;;;;;;16.92;4.20;;;7.20;94.00;;;;;;5137526;27;20084;-79
2022/01/14 10:27:43;;;;;;;13.23;4.47;;;7.20;93.90;;;;;;5153606;27;20047;-78
2022/01/14 10:30:21;;;;;;;13.30;4.10;;;7.20;93.70;;;;;;5154690;27;20050;-78
2022/01/14 10:33:08;;;;;;;13.45;3.85;;;7.20;93.70;;;;;;5137226;27;20043;-79
2022/01/14 10:35:37;;;;;;;10.32;3.78;;;7.20;93.70;;;;;;5154253;27;20055;-78
2022/01/14 10:38:08;;;;;;;11.65;3.72;;;7.30;93.60;;;;;;5154363;27;20126;-79
2022/01/14 10:40:38;;;;;;;11.55;3.60;;;7.20;93.50;;;;;;5136749;27;20038;-79
2022/01/14 10:43:06;;;;;;;15.55;5.63;;;7.30;93.70;;;;;;5137725;27;20053;-79
2022/01/14 10:45:33;;;;;;;14.50;4.68;;;7.30;93.70;;;;;;5154181;27;20039;-79
2022/01/14 10:48:08;;;;;;;15.52;3.83;;;7.30;93.50;;;;;;5137206;27;20137;-79
2022/01/14 10:50:38;;;;;;;11.65;3.67;;;7.30;93.70;;;;;;5154190;27;20039;-79
2022/01/14 10:53:24;;;;;;;10.52;4.10;;;7.30;93.60;;;;;;5154141;27;20078;-79
2022/01/14 10:55:52;;;;;;;16.65;4.45;;;7.40;93.40;;;;;;5154015;27;20042;-79
2022/01/14 10:58:29;;;;;;;12.20;3.53;;;7.30;93.50;;;;;;5137005;27;20038;-79
2022/01/14 11:01:00;;;;;;;14.13;3.85;;;7.30;93.60;;;;;;5154103;27;20095;-79
2022/01/14 11:03:36;;;;;;;19.65;5.28;;;7.30;93.80;;;;;;5136991;27;20453;-79
2022/01/14 11:06:14;;;;;;;17.90;4.40;;;7.30;93.80;;;;;;5154085;27;20038;-79
2022/01/14 11:08:40;;;;;;;15.38;6.03;;;7.30;93.70;;;;;;5153813;27;20039;-78
2022/01/14 11:11:06;;;;;;;11.55;3.85;;;7.30;93.90;;;;;;5136582;27;20041;-78
2022/01/14 11:13:32;;;;;;;16.73;3.88;;;7.40;94.00;;;;;;5153882;27;20042;-78
2022/01/14 11:15:58;;;;;;;12.85;4.85;;;7.30;93.80;;;;;;5119488;27;20030;-78
2022/01/14 11:18:25;;;;;;;17.65;4.88;;;7.30;93.60;;;;;;5136499;27;20125;-79
2022/01/14 11:23:35;;;;;;;14.07;3.95;;;7.30;93.80;;;;;;5153742;27;20121;-79
2022/01/14 11:26:06;;;;;;;12.32;4.30;;;7.30;93.90;;;;;;5136278;27;20146;-78
2022/01/14 11:28:35;;;;;;;15.18;4.30;;;7.30;93.90;;;;;;5153706;27;20054;-78
2022/01/14 11:31:21;;;;;;;14.35;4.30;;;7.30;94.10;;;;;;5153590;27;20129;-79
2022/01/14 11:33:47;;;;;;;14.80;4.28;;;7.20;94.20;;;;;;5154924;27;20046;-78
2022/01/14 11:36:12;;;;;;;15.05;4.57;;;7.30;94.30;;;;;;5139650;27;20440;-78
2022/01/14 11:38:44;;;;;;;24.45;5.30;;;7.30;94.30;;;;;;5156951;27;20042;-79
2022/01/14 11:41:13;;;;;;;17.20;3.85;;;7.30;94.30;;;;;;5157005;27;20121;-78
2022/01/14 11:43:41;;;;;;;15.32;4.53;;;7.40;94.00;;;;;;5157272;27;20256;-79
2022/01/14 11:46:10;;;;;;;16.05;5.13;;;7.30;94.10;;;;;;5157369;27;20389;-78
2022/01/14 11:48:42;;;;;;;15.10;5.07;;;7.30;94.00;;;;;;5140456;27;20046;-78
2022/01/14 11:51:15;;;;;;;19.98;4.78;;;7.30;94.10;;;;;;5123427;27;20121;-78
2022/01/14 11:54:04;;;;;;;19.63;5.10;;;7.30;94.30;;;;;;5161716;27;20041;-79
2022/01/14 11:56:30;;;;;;;18.75;5.40;;;7.30;94.60;;;;;;5146208;27;20046;-79
2022/01/14 11:59:18;;;;;;;13.48;5.28;;;7.30;94.70;;;;;;5161412;27;20049;-79
2022/01/14 12:01:52;;;;;;;23.83;6.00;;;7.30;94.50;;;;;;5143769;27;20034;-79
2022/01/14 12:04:19;;;;;;;19.45;4.95;;;7.30;94.60;;;;;;5143861;27;20042;-79
2022/01/14 12:06:51;;;;;;;19.75;6.38;;;7.30;94.60;;;;;;5160790;27;20034;-79
2022/01/14 12:09:24;;;;;;;17.60;5.32;;;7.40;94.80;;;;;;5160687;27;20430;-79
2022/01/14 12:12:21;;;;;;;13.93;4.65;;;7.40;94.70;;;;;;5160419;27;20042;-79
2022/01/14 12:14:55;;;;;;;14.20;4.85;;;7.40;94.80;;;;;;5160361;27;20046;-79
2022/01/14 12:17:31;;;;;;;21.20;6.10;;;7.40;94.60;;;;;;5143698;27;20118;-79
2022/01/14 12:20:05;;;;;;;21.23;6.32;;;7.50;94.60;;;;;;5160774;27;20037;-79
2022/01/14 12:22:31;;;;;;;21.58;4.90;;;7.50;94.60;;;;;;5143586;27;20042;-79
2022/01/14 12:24:58;;;;;;;16.48;4.80;;;7.50;94.70;;;;;;5126528;27;20038;-78
2022/01/14 12:27:25;;;;;;;23.25;5.82;;;7.40;94.70;;;;;;5161100;27;20061;-79
2022/01/14 12:30:02;;;;;;;18.92;5.43;;;7.50;94.80;;;;;;5160814;27;20045;-79
2022/01/14 12:32:32;;;;;;;19.13;5.18;;;7.50;94.80;;;;;;5143724;27;20090;-78
2022/01/14 12:35:18;;;;;;;14.15;4.65;;;7.50;95.00;;;;;;5143272;27;20054;-79
2022/01/14 12:37:49;;;;;;;17.52;5.30;;;7.50;95.00;;;;;;5143366;27;20042;-79
2022/01/14 12:40:22;;;;;;;17.60;5.05;;;7.50;94.90;;;;;;5143923;27;20038;-79
2022/01/14 12:42:55;;;;;;;20.35;6.07;;;7.50;95.00;;;;;;5143320;27;20038;-79
2022/01/14 12:45:28;;;;;;;22.38;5.53;;;7.50;94.90;;;;;;5160520;27;20070;-79
2022/01/14 12:48:38;;;;;;;20.73;4.97;;;7.50;94.80;;;;;;5160416;27;20042;-79
2022/01/14 12:51:10;;;;;;;17.25;5.22;;;7.50;94.80;;;;;;5160501;27;20053;-79
2022/01/14 12:53:44;;;;;;;17.60;5.00;;;7.50;95.00;;;;;;5143209;27;20102;-79
2022/01/14 12:56:15;;;;;;;17.98;4.65;;;7.50;95.00;;;;;;5160497;27;20049;-79
2022/01/14 12:59:02;;;;;;;20.70;5.78;;;7.60;95.20;;;;;;5160396;27;20554;-79
2022/01/14 13:01:40;;;;;;;26.25;4.88;;;7.50;95.10;;;;;;5145239;27;20388;-79
2022/01/14 13:04:08;;;;;;;16.10;5.00;;;7.60;95.20;;;;;;5159966;27;20474;-79
2022/01/14 13:07:03;;;;;;;17.75;4.95;;;7.50;95.20;;;;;;5160201;27;20079;-79
2022/01/14 13:09:32;;;;;;;15.63;4.22;;;7.60;95.30;;;;;;5121669;27;20386;-79
2022/01/14 13:12:16;;;;;;;15.85;4.70;;;7.60;95.10;;;;;;5160428;27;20405;-79